sensor_id;sensor_type;location;lat;lon;timestamp;pressure;altitude;pressure_sealevel;temperature;humidity
16738;BME280;17906;47.684;10.806;2023-12-28T00:01:45;59087.34;;;-146.04;100.00
16738;BME280;17906;47.684;10.806;2023-12-28T00:04:11;59087.34;;;-146.04;100.00
16738;BME280;17906;47.684;10.806;2023-12-28T00:06:38;59087.34;;;-146.04;100.00
16738;BME280;17906;47.684;10.806;2023-12-28T00:09:04;59087.34;;;-146.04;100.00
16738;BME280;17906;47.684;10.806;2023-12-28T00:11:31;59087.34;;;-146.04;100.00
16738;BME280;17906;47.684;10.806;2023-12-28T00:13:57;59087.34;;;-146.04;100.00
16738;BME280;17906;47.684;10.806;2023-12-28T00:16:24;59087.34;;;-146.04;100.00
16738;BME280;17906;47.684;10.806;2023-12-28T00:18:52;59087.34;;;-146.04;100.00
16738;BME280;17906;47.684;10.806;2023-12-28T00:21:19;59087.34;;;-146.04;100.00
16738;BME280;17906;47.684;10.806;2023-12-28T00:23:45;59087.34;;;-146.04;100.00
16738;BME280;17906;47.684;10.806;2023-12-28T00:26:12;59087.34;;;-146.04;100.00
16738;BME280;17906;47.684;10.806;2023-12-28T00:28:39;59087.34;;;-146.04;100.00
16738;BME280;17906;47.684;10.806;2023-12-28T00:31:05;59087.34;;;-146.04;100.00
16738;BME280;17906;47.684;10.806;2023-12-28T00:33:32;59087.34;;;-146.04;100.00
16738;BME280;17906;47.684;10.806;2023-12-28T00:36:00;59087.34;;;-146.04;100.00
16738;BME280;17906;47.684;10.806;2023-12-28T00:38:26;59087.34;;;-146.04;100.00
16738;BME280;17906;47.684;10.806;2023-12-28T00:40:53;59087.34;;;-146.04;100.00
16738;BME280;17906;47.684;10.806;2023-12-28T00:43:19;59087.34;;;-146.04;100.00
16738;BME280;17906;47.684;10.806;2023-12-28T00:45:46;59087.34;;;-146.04;100.00
16738;BME280;17906;47.684;10.806;2023-12-28T00:48:13;59087.34;;;-146.04;100.00
16738;BME280;17906;47.684;10.806;2023-12-28T00:50:39;93479.63;;;-3.57;nan
16738;BME280;17906;47.684;10.806;2023-12-28T00:53:07;93500.22;;;-4.74;nan
16738;BME280;17906;47.684;10.806;2023-12-28T00:55:34;93501.03;;;-4.74;nan
16738;BME280;17906;47.684;10.806;2023-12-28T00:58:00;93507.69;;;-4.70;nan
16738;BME280;17906;47.684;10.806;2023-12-28T01:00:27;93510.84;;;-4.84;nan
16738;BME280;17906;47.684;10.806;2023-12-28T01:02:54;93505.47;;;-4.92;nan
16738;BME280;17906;47.684;10.806;2023-12-28T01:05:20;93496.56;;;-4.91;nan
16738;BME280;17906;47.684;10.806;2023-12-28T01:07:47;93500.94;;;-4.82;nan
16738;BME280;17906;47.684;10.806;2023-12-28T01:10:15;93507.91;;;-4.81;nan
16738;BME280;17906;47.684;10.806;2023-12-28T01:12:42;93501.03;;;-4.74;nan
16738;BME280;17906;47.684;10.806;2023-12-28T01:15:09;93498.16;;;-4.80;nan
16738;BME280;17906;47.684;10.806;2023-12-28T01:17:36;93500.16;;;-4.65;nan
16738;BME280;17906;47.684;10.806;2023-12-28T01:20:04;93497.44;;;-4.55;nan
16738;BME280;17906;47.684;10.806;2023-12-28T01:22:31;93505.22;;;-4.53;nan
16738;BME280;17906;47.684;10.806;2023-12-28T01:24:58;93509.75;;;-4.64;nan
16738;BME280;17906;47.684;10.806;2023-12-28T01:27:26;93513.75;;;-4.59;nan
16738;BME280;17906;47.684;10.806;2023-12-28T01:29:53;93518.13;;;-4.50;nan
16738;BME280;17906;47.684;10.806;2023-12-28T01:32:20;93524.84;;;-4.74;nan
16738;BME280;17906;47.684;10.806;2023-12-28T01:34:46;93528.47;;;-4.75;nan
16738;BME280;17906;47.684;10.806;2023-12-28T01:37:13;93525.63;;;-4.91;nan
16738;BME280;17906;47.684;10.806;2023-12-28T01:39:39;93518.06;;;-5.04;nan
16738;BME280;17906;47.684;10.806;2023-12-28T01:42:06;93514.91;;;-5.07;nan
16738;BME280;17906;47.684;10.806;2023-12-28T01:44:34;93536.22;;;-5.18;nan
16738;BME280;17906;47.684;10.806;2023-12-28T01:47:00;93529.91;;;-5.08;nan
16738;BME280;17906;47.684;10.806;2023-12-28T01:49:27;93542.84;;;-5.05;nan
16738;BME280;17906;47.684;10.806;2023-12-28T01:51:54;93529.00;;;-4.89;nan
16738;BME280;17906;47.684;10.806;2023-12-28T01:54:21;93544.25;;;-4.83;nan
16738;BME280;17906;47.684;10.806;2023-12-28T01:56:49;93550.19;;;-4.81;nan
16738;BME280;17906;47.684;10.806;2023-12-28T01:59:16;93550.31;;;-4.73;nan
16738;BME280;17906;47.684;10.806;2023-12-28T02:01:45;93545.84;;;-4.72;nan
16738;BME280;17906;47.684;10.806;2023-12-28T02:04:11;93551.38;;;-4.66;nan
16738;BME280;17906;47.684;10.806;2023-12-28T02:06:39;93557.66;;;-4.94;nan
16738;BME280;17906;47.684;10.806;2023-12-28T02:09:05;93560.75;;;-4.99;nan
16738;BME280;17906;47.684;10.806;2023-12-28T02:11:32;93569.53;;;-4.98;nan
16738;BME280;17906;47.684;10.806;2023-12-28T02:13:59;93571.19;;;-4.97;nan
16738;BME280;17906;47.684;10.806;2023-12-28T02:16:29;93557.66;;;-4.94;nan
16738;BME280;17906;47.684;10.806;2023-12-28T02:19:04;93555.31;;;-4.97;nan
16738;BME280;17906;47.684;10.806;2023-12-28T02:21:38;93572.06;;;-5.06;nan
16738;BME280;17906;47.684;10.806;2023-12-28T02:24:05;93566.41;;;-4.94;nan
16738;BME280;17906;47.684;10.806;2023-12-28T02:26:33;93556.78;;;-4.85;nan
16738;BME280;17906;47.684;10.806;2023-12-28T02:29:00;93568.50;;;-4.87;nan
16738;BME280;17906;47.684;10.806;2023-12-28T02:31:31;93551.19;;;-4.82;nan
16738;BME280;17906;47.684;10.806;2023-12-28T02:34:06;93561.81;;;-4.92;nan
16738;BME280;17906;47.684;10.806;2023-12-28T02:36:36;93552.00;;;-4.99;nan
16738;BME280;17906;47.684;10.806;2023-12-28T02:39:05;93556.03;;;-5.05;nan
16738;BME280;17906;47.684;10.806;2023-12-28T02:41:34;93565.94;;;-5.07;nan
16738;BME280;17906;47.684;10.806;2023-12-28T02:44:01;93559.78;;;-4.98;nan
16738;BME280;17906;47.684;10.806;2023-12-28T02:46:27;93543.19;;;-4.90;nan
16738;BME280;17906;47.684;10.806;2023-12-28T02:48:54;93545.41;;;-4.68;nan
16738;BME280;17906;47.684;10.806;2023-12-28T02:51:22;93535.22;;;-4.45;nan
16738;BME280;17906;47.684;10.806;2023-12-28T02:53:49;93535.75;;;-4.41;nan
16738;BME280;17906;47.684;10.806;2023-12-28T02:56:15;93546.00;;;-4.38;nan
16738;BME280;17906;47.684;10.806;2023-12-28T02:58:43;93545.28;;;-4.30;nan
16738;BME280;17906;47.684;10.806;2023-12-28T03:01:10;93536.97;;;-4.36;nan
16738;BME280;17906;47.684;10.806;2023-12-28T03:03:37;93542.69;;;-4.40;nan
16738;BME280;17906;47.684;10.806;2023-12-28T03:06:03;93541.56;;;-4.38;nan
16738;BME280;17906;47.684;10.806;2023-12-28T03:08:30;93534.09;;;-4.24;nan
16738;BME280;17906;47.684;10.806;2023-12-28T03:10:56;93527.50;;;-4.20;nan
16738;BME280;17906;47.684;10.806;2023-12-28T03:13:23;93527.78;;;-4.06;nan
16738;BME280;17906;47.684;10.806;2023-12-28T03:15:51;93528.56;;;-4.13;nan
16738;BME280;17906;47.684;10.806;2023-12-28T03:18:18;93528.66;;;-4.23;nan
16738;BME280;17906;47.684;10.806;2023-12-28T03:20:44;93527.34;;;-4.19;nan
16738;BME280;17906;47.684;10.806;2023-12-28T03:23:11;93527.72;;;-4.14;nan
16738;BME280;17906;47.684;10.806;2023-12-28T03:25:38;93525.91;;;-4.13;nan
16738;BME280;17906;47.684;10.806;2023-12-28T03:28:05;93530.22;;;-4.12;nan
16738;BME280;17906;47.684;10.806;2023-12-28T03:30:32;93533.69;;;-4.29;nan
16738;BME280;17906;47.684;10.806;2023-12-28T03:32:59;93533.94;;;-4.23;nan
16738;BME280;17906;47.684;10.806;2023-12-28T03:35:26;93533.09;;;-4.23;nan
16738;BME280;17906;47.684;10.806;2023-12-28T03:37:53;93545.19;;;-4.21;nan
16738;BME280;17906;47.684;10.806;2023-12-28T03:40:19;93531.97;;;-4.21;nan
16738;BME280;17906;47.684;10.806;2023-12-28T03:42:46;93532.78;;;-4.20;nan
16738;BME280;17906;47.684;10.806;2023-12-28T03:45:13;93549.75;;;-4.13;nan
16738;BME280;17906;47.684;10.806;2023-12-28T03:47:39;93549.88;;;-4.15;nan
16738;BME280;17906;47.684;10.806;2023-12-28T03:50:08;93558.03;;;-4.08;nan
16738;BME280;17906;47.684;10.806;2023-12-28T03:52:35;93549.84;;;-3.97;nan
16738;BME280;17906;47.684;10.806;2023-12-28T03:55:01;93543.41;;;-3.94;nan
16738;BME280;17906;47.684;10.806;2023-12-28T03:57:28;93548.34;;;-3.99;nan
16738;BME280;17906;47.684;10.806;2023-12-28T03:59:54;93546.94;;;-4.12;nan
16738;BME280;17906;47.684;10.806;2023-12-28T04:02:20;93538.75;;;-4.18;nan
16738;BME280;17906;47.684;10.806;2023-12-28T04:04:47;93546.69;;;-4.18;nan
16738;BME280;17906;47.684;10.806;2023-12-28T04:07:15;93542.38;;;-4.19;nan
16738;BME280;17906;47.684;10.806;2023-12-28T04:09:42;93541.72;;;-4.21;nan
16738;BME280;17906;47.684;10.806;2023-12-28T04:12:09;93540.88;;;-4.22;nan
16738;BME280;17906;47.684;10.806;2023-12-28T04:14:35;93539.22;;;-4.23;nan
16738;BME280;17906;47.684;10.806;2023-12-28T04:17:02;93548.81;;;-4.22;nan
16738;BME280;17906;47.684;10.806;2023-12-28T04:19:28;93544.13;;;-4.28;nan
16738;BME280;17906;47.684;10.806;2023-12-28T04:21:56;93544.56;;;-4.15;nan
16738;BME280;17906;47.684;10.806;2023-12-28T04:24:24;93552.97;;;-4.01;nan
16738;BME280;17906;47.684;10.806;2023-12-28T04:26:51;93547.06;;;-3.95;nan
16738;BME280;17906;47.684;10.806;2023-12-28T04:29:17;93551.22;;;-3.93;nan
16738;BME280;17906;47.684;10.806;2023-12-28T04:31:44;93544.63;;;-3.89;nan
16738;BME280;17906;47.684;10.806;2023-12-28T04:34:11;93550.13;;;-3.82;nan
16738;BME280;17906;47.684;10.806;2023-12-28T04:36:40;93546.66;;;-3.83;nan
16738;BME280;17906;47.684;10.806;2023-12-28T04:39:08;93535.66;;;-3.70;nan
16738;BME280;17906;47.684;10.806;2023-12-28T04:41:36;93540.97;;;-3.44;nan
16738;BME280;17906;47.684;10.806;2023-12-28T04:44:03;93532.06;;;-3.35;nan
16738;BME280;17906;47.684;10.806;2023-12-28T04:46:29;59087.34;;;-146.04;100.00
16738;BME280;17906;47.684;10.806;2023-12-28T04:48:56;93532.06;;;-3.35;nan
16738;BME280;17906;47.684;10.806;2023-12-28T04:51:23;93559.25;;;-3.33;nan
16738;BME280;17906;47.684;10.806;2023-12-28T04:53:49;93564.69;;;-3.34;nan
16738;BME280;17906;47.684;10.806;2023-12-28T04:56:18;93574.22;;;-3.24;nan
16738;BME280;17906;47.684;10.806;2023-12-28T04:58:46;93564.66;;;-3.16;nan
16738;BME280;17906;47.684;10.806;2023-12-28T05:01:13;93561.78;;;-2.89;nan
16738;BME280;17906;47.684;10.806;2023-12-28T05:03:39;93558.22;;;-2.72;nan
16738;BME280;17906;47.684;10.806;2023-12-28T05:06:06;93557.72;;;-2.67;nan
16738;BME280;17906;47.684;10.806;2023-12-28T05:08:32;59087.34;;;-146.04;100.00
16738;BME280;17906;47.684;10.806;2023-12-28T05:10:59;59087.34;;;-146.04;100.00
16738;BME280;17906;47.684;10.806;2023-12-28T05:13:26;59087.34;;;-146.04;100.00
16738;BME280;17906;47.684;10.806;2023-12-28T05:15:54;59087.34;;;-146.04;100.00
16738;BME280;17906;47.684;10.806;2023-12-28T05:18:20;59087.34;;;-146.04;100.00
16738;BME280;17906;47.684;10.806;2023-12-28T05:20:47;59087.34;;;-146.04;100.00
16738;BME280;17906;47.684;10.806;2023-12-28T05:23:13;59087.34;;;-146.04;100.00
16738;BME280;17906;47.684;10.806;2023-12-28T05:25:40;59087.34;;;-146.04;100.00
16738;BME280;17906;47.684;10.806;2023-12-28T05:28:07;59087.34;;;-146.04;100.00
16738;BME280;17906;47.684;10.806;2023-12-28T05:30:33;59087.34;;;-146.04;100.00
16738;BME280;17906;47.684;10.806;2023-12-28T05:33:01;59087.34;;;-146.04;100.00
16738;BME280;17906;47.684;10.806;2023-12-28T05:35:28;59087.34;;;-146.04;100.00
16738;BME280;17906;47.684;10.806;2023-12-28T05:37:54;59087.34;;;-146.04;100.00
16738;BME280;17906;47.684;10.806;2023-12-28T05:40:21;59087.34;;;-146.04;100.00
16738;BME280;17906;47.684;10.806;2023-12-28T05:42:48;93557.72;;;-2.67;nan
16738;BME280;17906;47.684;10.806;2023-12-28T05:45:14;93549.88;;;-2.26;nan
16738;BME280;17906;47.684;10.806;2023-12-28T05:47:41;93554.66;;;-2.22;nan
16738;BME280;17906;47.684;10.806;2023-12-28T05:50:09;93542.22;;;-2.21;nan
16738;BME280;17906;47.684;10.806;2023-12-28T05:52:36;93542.91;;;-2.27;nan
16738;BME280;17906;47.684;10.806;2023-12-28T05:55:03;93544.38;;;-2.33;nan
16738;BME280;17906;47.684;10.806;2023-12-28T05:57:30;93539.88;;;-2.33;nan
16738;BME280;17906;47.684;10.806;2023-12-28T05:59:57;93535.72;;;-2.43;nan
16738;BME280;17906;47.684;10.806;2023-12-28T06:02:24;93542.91;;;-2.27;nan
16738;BME280;17906;47.684;10.806;2023-12-28T06:04:50;93544.06;;;-2.30;nan
16738;BME280;17906;47.684;10.806;2023-12-28T06:07:18;93546.53;;;-2.28;nan
16738;BME280;17906;47.684;10.806;2023-12-28T06:09:45;93546.19;;;-2.34;nan
16738;BME280;17906;47.684;10.806;2023-12-28T06:12:11;93551.16;;;-2.39;nan
16738;BME280;17906;47.684;10.806;2023-12-28T06:14:38;93550.97;;;-2.45;nan
16738;BME280;17906;47.684;10.806;2023-12-28T06:17:04;93544.50;;;-2.51;nan
16738;BME280;17906;47.684;10.806;2023-12-28T06:19:31;93551.13;;;-2.55;nan
16738;BME280;17906;47.684;10.806;2023-12-28T06:21:58;93551.13;;;-2.55;nan
16738;BME280;17906;47.684;10.806;2023-12-28T06:24:26;93545.50;;;-2.44;nan
16738;BME280;17906;47.684;10.806;2023-12-28T06:26:53;93546.00;;;-2.48;nan
16738;BME280;17906;47.684;10.806;2023-12-28T06:29:19;93546.34;;;-2.51;nan
16738;BME280;17906;47.684;10.806;2023-12-28T06:31:46;93545.69;;;-2.37;nan
16738;BME280;17906;47.684;10.806;2023-12-28T06:34:13;93537.22;;;-2.33;nan
16738;BME280;17906;47.684;10.806;2023-12-28T06:36:40;93536.09;;;-2.30;nan
16738;BME280;17906;47.684;10.806;2023-12-28T06:39:08;93528.94;;;-2.38;nan
16738;BME280;17906;47.684;10.806;2023-12-28T06:41:36;93535.56;;;-2.34;nan
16738;BME280;17906;47.684;10.806;2023-12-28T06:44:03;93520.31;;;-2.32;nan
16738;BME280;17906;47.684;10.806;2023-12-28T06:46:29;93529.09;;;-2.31;nan
16738;BME280;17906;47.684;10.806;2023-12-28T06:48:56;93532.91;;;-2.34;nan
16738;BME280;17906;47.684;10.806;2023-12-28T06:51:24;93533.88;;;-2.43;nan
16738;BME280;17906;47.684;10.806;2023-12-28T06:53:51;93524.59;;;-2.47;nan
16738;BME280;17906;47.684;10.806;2023-12-28T06:56:18;93530.25;;;-2.50;nan
16738;BME280;17906;47.684;10.806;2023-12-28T06:58:46;93521.75;;;-2.62;nan
16738;BME280;17906;47.684;10.806;2023-12-28T07:01:13;93516.09;;;-2.67;nan
16738;BME280;17906;47.684;10.806;2023-12-28T07:03:39;93531.91;;;-2.49;nan
16738;BME280;17906;47.684;10.806;2023-12-28T07:06:06;93532.41;;;-2.45;nan
16738;BME280;17906;47.684;10.806;2023-12-28T07:08:33;93533.88;;;-2.43;nan
16738;BME280;17906;47.684;10.806;2023-12-28T07:10:59;93538.88;;;-2.48;nan
16738;BME280;17906;47.684;10.806;2023-12-28T07:13:26;93536.31;;;-2.66;nan
16738;BME280;17906;47.684;10.806;2023-12-28T07:15:54;93541.75;;;-2.83;nan
16738;BME280;17906;47.684;10.806;2023-12-28T07:18:21;93549.19;;;-2.87;nan
16738;BME280;17906;47.684;10.806;2023-12-28T07:20:47;93549.03;;;-2.85;nan
16738;BME280;17906;47.684;10.806;2023-12-28T07:23:15;93548.22;;;-2.78;nan
16738;BME280;17906;47.684;10.806;2023-12-28T07:25:41;93544.91;;;-2.80;nan
16738;BME280;17906;47.684;10.806;2023-12-28T07:28:08;93542.72;;;-2.84;nan
16738;BME280;17906;47.684;10.806;2023-12-28T07:30:34;93550.00;;;-2.86;nan
16738;BME280;17906;47.684;10.806;2023-12-28T07:33:03;93537.25;;;-2.91;nan
16738;BME280;17906;47.684;10.806;2023-12-28T07:35:29;93543.38;;;-2.91;nan
16738;BME280;17906;47.684;10.806;2023-12-28T07:37:56;93537.91;;;-2.89;nan
16738;BME280;17906;47.684;10.806;2023-12-28T07:40:23;93548.34;;;-2.88;nan
16738;BME280;17906;47.684;10.806;2023-12-28T07:42:49;93545.03;;;-2.90;nan
16738;BME280;17906;47.684;10.806;2023-12-28T07:45:16;93539.25;;;-2.85;nan
16738;BME280;17906;47.684;10.806;2023-12-28T07:47:48;93532.16;;;-2.76;nan
16738;BME280;17906;47.684;10.806;2023-12-28T07:50:16;93533.50;;;-2.72;nan
16738;BME280;17906;47.684;10.806;2023-12-28T07:52:42;93533.84;;;-2.67;nan
16738;BME280;17906;47.684;10.806;2023-12-28T07:55:09;93532.22;;;-2.60;nan
16738;BME280;17906;47.684;10.806;2023-12-28T07:57:36;93540.19;;;-2.44;nan
16738;BME280;17906;47.684;10.806;2023-12-28T08:00:03;93541.72;;;-2.33;nan
16738;BME280;17906;47.684;10.806;2023-12-28T08:02:30;93531.63;;;-2.29;nan
16738;BME280;17906;47.684;10.806;2023-12-28T08:04:57;93546.56;;;-2.12;nan
16738;BME280;17906;47.684;10.806;2023-12-28T08:07:25;93538.09;;;-1.99;nan
16738;BME280;17906;47.684;10.806;2023-12-28T08:09:52;93535.47;;;-1.75;nan
16738;BME280;17906;47.684;10.806;2023-12-28T08:12:19;93544.53;;;-1.37;nan
16738;BME280;17906;47.684;10.806;2023-12-28T08:14:46;59087.34;;;-146.04;100.00
16738;BME280;17906;47.684;10.806;2023-12-28T08:17:12;59087.34;;;-146.04;100.00
16738;BME280;17906;47.684;10.806;2023-12-28T08:19:39;59087.34;;;-146.04;100.00
16738;BME280;17906;47.684;10.806;2023-12-28T08:22:06;59087.34;;;-146.04;100.00
16738;BME280;17906;47.684;10.806;2023-12-28T08:24:34;59087.34;;;-146.04;100.00
16738;BME280;17906;47.684;10.806;2023-12-28T08:27:01;59087.34;;;-146.04;100.00
16738;BME280;17906;47.684;10.806;2023-12-28T08:29:28;59087.34;;;-146.04;100.00
16738;BME280;17906;47.684;10.806;2023-12-28T08:31:55;59087.34;;;-146.04;100.00
16738;BME280;17906;47.684;10.806;2023-12-28T08:34:21;59087.34;;;-146.04;100.00
16738;BME280;17906;47.684;10.806;2023-12-28T08:36:48;59087.34;;;-146.04;100.00
16738;BME280;17906;47.684;10.806;2023-12-28T08:39:15;59087.34;;;-146.04;100.00
16738;BME280;17906;47.684;10.806;2023-12-28T08:41:43;59087.34;;;-146.04;100.00
16738;BME280;17906;47.684;10.806;2023-12-28T08:44:09;59087.34;;;-146.04;100.00
16738;BME280;17906;47.684;10.806;2023-12-28T08:46:36;59087.34;;;-146.04;100.00
16738;BME280;17906;47.684;10.806;2023-12-28T08:49:03;59087.34;;;-146.04;100.00
16738;BME280;17906;47.684;10.806;2023-12-28T08:51:29;59087.34;;;-146.04;100.00
16738;BME280;17906;47.684;10.806;2023-12-28T08:53:56;59087.34;;;-146.04;100.00
16738;BME280;17906;47.684;10.806;2023-12-28T08:56:23;93562.41;;;3.94;nan
16738;BME280;17906;47.684;10.806;2023-12-28T08:58:51;93566.28;;;4.32;nan
16738;BME280;17906;47.684;10.806;2023-12-28T09:01:19;93563.88;;;4.97;nan
16738;BME280;17906;47.684;10.806;2023-12-28T09:03:48;93564.06;;;5.35;nan
16738;BME280;17906;47.684;10.806;2023-12-28T09:06:14;59087.34;;;-146.04;100.00
16738;BME280;17906;47.684;10.806;2023-12-28T09:08:41;59087.34;;;-146.04;100.00
16738;BME280;17906;47.684;10.806;2023-12-28T09:11:09;59087.34;;;-146.04;100.00
16738;BME280;17906;47.684;10.806;2023-12-28T09:13:36;93566.19;;;6.56;nan
16738;BME280;17906;47.684;10.806;2023-12-28T09:16:04;93567.81;;;6.95;nan
16738;BME280;17906;47.684;10.806;2023-12-28T09:18:31;93580.00;;;7.04;nan
16738;BME280;17906;47.684;10.806;2023-12-28T09:20:57;93573.53;;;7.05;nan
16738;BME280;17906;47.684;10.806;2023-12-28T09:23:24;93579.66;;;6.87;nan
16738;BME280;17906;47.684;10.806;2023-12-28T09:25:51;93577.06;;;6.74;nan
16738;BME280;17906;47.684;10.806;2023-12-28T09:28:17;93576.59;;;6.84;nan
16738;BME280;17906;47.684;10.806;2023-12-28T09:30:44;93579.41;;;6.95;nan
16738;BME280;17906;47.684;10.806;2023-12-28T09:33:12;93576.78;;;7.14;nan
16738;BME280;17906;47.684;10.806;2023-12-28T09:35:38;93575.34;;;7.11;nan
16738;BME280;17906;47.684;10.806;2023-12-28T09:38:05;93570.28;;;6.65;nan
16738;BME280;17906;47.684;10.806;2023-12-28T09:40:32;93559.47;;;6.33;nan
16738;BME280;17906;47.684;10.806;2023-12-28T09:43:05;59087.34;;;-146.04;100.00
16738;BME280;17906;47.684;10.806;2023-12-28T09:45:35;59087.34;;;-146.04;100.00
16738;BME280;17906;47.684;10.806;2023-12-28T09:48:03;59087.34;;;-146.04;100.00
16738;BME280;17906;47.684;10.806;2023-12-28T09:50:31;59087.34;;;-146.04;100.00
16738;BME280;17906;47.684;10.806;2023-12-28T09:52:58;59087.34;;;-146.04;100.00
16738;BME280;17906;47.684;10.806;2023-12-28T09:55:25;59087.34;;;-146.04;100.00
16738;BME280;17906;47.684;10.806;2023-12-28T09:57:51;59087.34;;;-146.04;100.00
16738;BME280;17906;47.684;10.806;2023-12-28T10:00:18;59087.34;;;-146.04;100.00
16738;BME280;17906;47.684;10.806;2023-12-28T10:02:45;59087.34;;;-146.04;100.00
16738;BME280;17906;47.684;10.806;2023-12-28T10:05:12;59087.34;;;-146.04;100.00
16738;BME280;17906;47.684;10.806;2023-12-28T10:07:42;59087.34;;;-146.04;100.00
16738;BME280;17906;47.684;10.806;2023-12-28T10:10:09;93525.91;;;6.36;nan
16738;BME280;17906;47.684;10.806;2023-12-28T10:12:39;93515.84;;;6.81;nan
16738;BME280;17906;47.684;10.806;2023-12-28T10:15:06;93514.63;;;7.09;nan
16738;BME280;17906;47.684;10.806;2023-12-28T10:17:33;93507.09;;;7.17;nan
16738;BME280;17906;47.684;10.806;2023-12-28T10:20:00;93511.53;;;7.30;nan
16738;BME280;17906;47.684;10.806;2023-12-28T10:22:30;93499.66;;;7.56;nan
16738;BME280;17906;47.684;10.806;2023-12-28T10:24:58;93494.72;;;7.53;nan
16738;BME280;17906;47.684;10.806;2023-12-28T10:27:26;93491.41;;;7.51;nan
16738;BME280;17906;47.684;10.806;2023-12-28T10:29:53;93490.81;;;7.67;nan
16738;BME280;17906;47.684;10.806;2023-12-28T10:32:20;59087.34;;;-146.04;100.00
16738;BME280;17906;47.684;10.806;2023-12-28T10:34:48;93491.94;;;7.60;nan
16738;BME280;17906;47.684;10.806;2023-12-28T10:37:16;93491.94;;;7.60;nan
16738;BME280;17906;47.684;10.806;2023-12-28T10:39:46;93496.19;;;7.31;nan
16738;BME280;17906;47.684;10.806;2023-12-28T10:42:20;93491.16;;;7.34;nan
16738;BME280;17906;47.684;10.806;2023-12-28T10:44:52;93486.03;;;7.51;nan
16738;BME280;17906;47.684;10.806;2023-12-28T10:47:21;93477.31;;;7.67;nan
16738;BME280;17906;47.684;10.806;2023-12-28T10:49:53;93481.88;;;7.67;nan
16738;BME280;17906;47.684;10.806;2023-12-28T10:52:27;93479.34;;;7.72;nan
16738;BME280;17906;47.684;10.806;2023-12-28T10:54:59;93477.19;;;7.80;nan
16738;BME280;17906;47.684;10.806;2023-12-28T10:57:34;93466.28;;;7.87;nan
16738;BME280;17906;47.684;10.806;2023-12-28T11:00:09;93471.63;;;7.75;nan
16738;BME280;17906;47.684;10.806;2023-12-28T11:02:39;93480.84;;;7.68;nan
16738;BME280;17906;47.684;10.806;2023-12-28T11:05:08;93470.44;;;7.53;nan
16738;BME280;17906;47.684;10.806;2023-12-28T11:07:35;93485.47;;;7.42;nan
16738;BME280;17906;47.684;10.806;2023-12-28T11:10:05;93477.16;;;7.44;nan
16738;BME280;17906;47.684;10.806;2023-12-28T11:12:33;93484.88;;;7.40;nan
16738;BME280;17906;47.684;10.806;2023-12-28T11:15:01;93491.13;;;7.16;nan
16738;BME280;17906;47.684;10.806;2023-12-28T11:17:30;93495.31;;;7.12;nan
16738;BME280;17906;47.684;10.806;2023-12-28T11:19:57;93496.41;;;7.29;nan
16738;BME280;17906;47.684;10.806;2023-12-28T11:22:25;93497.00;;;7.31;nan
16738;BME280;17906;47.684;10.806;2023-12-28T11:24:52;93489.34;;;7.28;nan
16738;BME280;17906;47.684;10.806;2023-12-28T11:27:19;93477.66;;;7.34;nan
16738;BME280;17906;47.684;10.806;2023-12-28T11:29:49;93493.47;;;7.31;nan
16738;BME280;17906;47.684;10.806;2023-12-28T11:32:19;93502.16;;;7.33;nan
16738;BME280;17906;47.684;10.806;2023-12-28T11:34:56;93489.50;;;7.33;nan
16738;BME280;17906;47.684;10.806;2023-12-28T11:37:23;93501.19;;;7.27;nan
16738;BME280;17906;47.684;10.806;2023-12-28T11:39:52;93491.47;;;7.26;nan
16738;BME280;17906;47.684;10.806;2023-12-28T11:42:20;93486.66;;;7.28;nan
16738;BME280;17906;47.684;10.806;2023-12-28T11:44:53;93492.28;;;7.45;nan
16738;BME280;17906;47.684;10.806;2023-12-28T11:47:22;93485.47;;;7.42;nan
16738;BME280;17906;47.684;10.806;2023-12-28T11:49:49;93483.16;;;7.46;nan
16738;BME280;17906;47.684;10.806;2023-12-28T11:52:24;93485.03;;;7.45;nan
16738;BME280;17906;47.684;10.806;2023-12-28T11:54:51;93489.59;;;7.45;nan
16738;BME280;17906;47.684;10.806;2023-12-28T11:57:18;93497.09;;;7.43;nan
16738;BME280;17906;47.684;10.806;2023-12-28T11:59:45;93492.44;;;7.32;nan
16738;BME280;17906;47.684;10.806;2023-12-28T12:02:13;93489.28;;;7.35;nan
16738;BME280;17906;47.684;10.806;2023-12-28T12:04:40;93496.69;;;7.21;nan
16738;BME280;17906;47.684;10.806;2023-12-28T12:07:06;93485.66;;;7.22;nan
16738;BME280;17906;47.684;10.806;2023-12-28T12:09:33;93477.34;;;7.06;nan
16738;BME280;17906;47.684;10.806;2023-12-28T12:12:01;93486.75;;;6.96;nan
16738;BME280;17906;47.684;10.806;2023-12-28T12:14:28;93485.47;;;6.99;nan
16738;BME280;17906;47.684;10.806;2023-12-28T12:16:55;93491.63;;;7.06;nan
16738;BME280;17906;47.684;10.806;2023-12-28T12:19:23;93472.91;;;7.11;nan
16738;BME280;17906;47.684;10.806;2023-12-28T12:21:51;93490.97;;;7.11;nan
16738;BME280;17906;47.684;10.806;2023-12-28T12:24:18;93475.88;;;7.03;nan
16738;BME280;17906;47.684;10.806;2023-12-28T12:26:45;93467.38;;;7.06;nan
16738;BME280;17906;47.684;10.806;2023-12-28T12:29:12;93465.09;;;7.03;nan
16738;BME280;17906;47.684;10.806;2023-12-28T12:31:40;93466.00;;;6.97;nan
16738;BME280;17906;47.684;10.806;2023-12-28T12:34:07;93458.56;;;6.92;nan
16738;BME280;17906;47.684;10.806;2023-12-28T12:36:35;93461.66;;;6.96;nan
16738;BME280;17906;47.684;10.806;2023-12-28T12:39:02;93464.25;;;6.84;nan
16738;BME280;17906;47.684;10.806;2023-12-28T12:41:31;93457.69;;;6.74;nan
16738;BME280;17906;47.684;10.806;2023-12-28T12:43:58;93462.69;;;6.70;nan
16738;BME280;17906;47.684;10.806;2023-12-28T12:46:25;93453.25;;;6.61;nan
16738;BME280;17906;47.684;10.806;2023-12-28T12:48:55;93456.75;;;6.61;nan
16738;BME280;17906;47.684;10.806;2023-12-28T12:51:22;93452.72;;;6.46;nan
16738;BME280;17906;47.684;10.806;2023-12-28T12:53:50;93453.19;;;6.36;nan
16738;BME280;17906;47.684;10.806;2023-12-28T12:56:21;93450.13;;;6.32;nan
16738;BME280;17906;47.684;10.806;2023-12-28T12:58:48;93443.69;;;6.33;nan
16738;BME280;17906;47.684;10.806;2023-12-28T13:01:15;93447.47;;;6.26;nan
16738;BME280;17906;47.684;10.806;2023-12-28T13:03:42;93440.22;;;6.26;nan